Map

Track Data

SID SEASON NUMBER BASIN SUBBASIN NAME ISO_TIME NATURE LAT LON WMO_WIND WMO_PRES WMO_AGENCY TRACK_TYPE DIST2LAND LANDFALL IFLAG USA_AGENCY USA_ATCF_ID USA_LAT USA_LON USA_RECORD USA_STATUS USA_WIND USA_PRES USA_SSHS USA_R34_NE USA_R34_SE USA_R34_SW USA_R34_NW USA_R50_NE USA_R50_SE USA_R50_SW USA_R50_NW USA_R64_NE USA_R64_SE USA_R64_SW USA_R64_NW USA_POCI USA_ROCI USA_RMW USA_EYE TOKYO_LAT TOKYO_LON TOKYO_GRADE TOKYO_WIND TOKYO_PRES TOKYO_R50_DIR TOKYO_R50_LONG TOKYO_R50_SHORT TOKYO_R30_DIR TOKYO_R30_LONG TOKYO_R30_SHORT TOKYO_LAND CMA_LAT CMA_LON CMA_CAT CMA_WIND CMA_PRES HKO_LAT HKO_LON HKO_CAT HKO_WIND HKO_PRES NEWDELHI_LAT NEWDELHI_LON NEWDELHI_GRADE NEWDELHI_WIND NEWDELHI_PRES NEWDELHI_CI NEWDELHI_DP NEWDELHI_POCI REUNION_LAT REUNION_LON REUNION_TYPE REUNION_WIND REUNION_PRES REUNION_TNUM REUNION_CI REUNION_RMW REUNION_R34_NE REUNION_R34_SE REUNION_R34_SW REUNION_R34_NW REUNION_R50_NE REUNION_R50_SE REUNION_R50_SW REUNION_R50_NW REUNION_R64_NE REUNION_R64_SE REUNION_R64_SW REUNION_R64_NW BOM_LAT BOM_LON BOM_TYPE BOM_WIND BOM_PRES BOM_TNUM BOM_CI BOM_RMW BOM_R34_NE BOM_R34_SE BOM_R34_SW BOM_R34_NW BOM_R50_NE BOM_R50_SE BOM_R50_SW BOM_R50_NW BOM_R64_NE BOM_R64_SE BOM_R64_SW BOM_R64_NW BOM_ROCI BOM_POCI BOM_EYE BOM_POS_METHOD BOM_PRES_METHOD NADI_LAT NADI_LON NADI_CAT NADI_WIND NADI_PRES WELLINGTON_LAT WELLINGTON_LON WELLINGTON_WIND WELLINGTON_PRES DS824_LAT DS824_LON DS824_STAGE DS824_WIND DS824_PRES TD9636_LAT TD9636_LON TD9636_STAGE TD9636_WIND TD9636_PRES TD9635_LAT TD9635_LON TD9635_WIND TD9635_PRES TD9635_ROCI NEUMANN_LAT NEUMANN_LON NEUMANN_CLASS NEUMANN_WIND NEUMANN_PRES MLC_LAT MLC_LON MLC_CLASS MLC_WIND MLC_PRES USA_GUST BOM_GUST BOM_GUST_PER REUNION_GUST REUNION_GUST_PER USA_SEAHGT USA_SEARAD_NE USA_SEARAD_SE USA_SEARAD_SW USA_SEARAD_NW STORM_SPEED STORM_DIR
1931231N21089 1931 31 NI BB NOT_NAMED 1931-08-19 00:00:00 TS 20.8000 89.0000 main 89 89 _________O____ -1 20.8000 89.0000 TC 34 0 0
1931231N21089 1931 31 NI BB NOT_NAMED 1931-08-19 03:00:00 TS 20.8000 89.0000 main 89 89 _________PO___ -1 20.8000 89.0000 TC 36 20.8000 89.0000 2 0 0
1931231N21089 1931 31 NI BB NOT_NAMED 1931-08-19 06:00:00 TS 20.8000 88.9969 main 89 89 _________OP___ -1 20.8000 89.0000 TC 39 20.8000 88.9922 2 0 0
1931231N21089 1931 31 NI BB NOT_NAMED 1931-08-19 09:00:00 TS 20.8000 88.9946 main 89 89 _________PP___ -1 20.8000 89.0000 TC 42 20.8000 88.9875 2 0 0
1931231N21089 1931 31 NI BB NOT_NAMED 1931-08-19 12:00:00 TS 20.8000 88.9945 main 89 89 _________OP___ -1 20.8000 89.0000 TC 45 20.8000 88.9891 2 0 0
1931231N21089 1931 31 NI BB NOT_NAMED 1931-08-19 15:00:00 TS 20.8000 89.0000 main 89 89 _________PO___ -1 20.8000 89.0000 TC 45 20.8000 89.0000 3 0 0
1931231N21089 1931 31 NI BB NOT_NAMED 1931-08-19 18:00:00 TS 20.8000 89.0102 main 89 89 _________OP___ -1 20.8000 89.0000 TC 45 20.8000 89.0203 3 0 0
1931231N21089 1931 31 NI BB NOT_NAMED 1931-08-19 21:00:00 TS 20.8000 89.0262 main 89 89 _________PP___ -1 20.8000 89.0150 TC 45 20.7999 89.0375 3 0 0
1931231N21089 1931 31 NI BB NOT_NAMED 1931-08-20 00:00:00 TS 20.8000 89.0180 main 89 89 _________OP___ -1 20.8000 89.0000 TC 45 20.7999 89.0359 3 1 270
1931231N21089 1931 31 NI BB NOT_NAMED 1931-08-20 03:00:00 TS 20.8000 88.9613 main 89 89 _________PO___ -1 20.8000 88.9225 TC 45 20.8000 89.0000 3 2 269
1931231N21089 1931 31 NI BB NOT_NAMED 1931-08-20 06:00:00 TS 20.7980 88.8555 main 89 89 _________OP___ -1 20.8000 88.8000 TC 45 20.7960 88.9109 3 2 269
1931231N21089 1931 31 NI BB NOT_NAMED 1931-08-20 09:00:00 TS 20.7963 88.7225 main 91 90 _________PP___ -1 20.8000 88.6575 TC 45 20.7926 88.7875 3 3 270
1931231N21089 1931 31 NI BB NOT_NAMED 1931-08-20 12:00:00 TS 20.7964 88.5726 main 90 89 _________OP___ -1 20.8000 88.5000 TC 45 20.7929 88.6453 3 3 270
1931231N21089 1931 31 NI BB NOT_NAMED 1931-08-20 15:00:00 TS 20.7963 88.4212 main 89 89 _________PO___ -1 20.7925 88.3425 TC 45 20.8000 88.5000 3 3 272
1931231N21089 1931 31 NI BB NOT_NAMED 1931-08-20 18:00:00 TS 20.8048 88.2875 main 89 89 _________OP___ -1 20.8000 88.2000 TC 45 20.8097 88.3750 3 2 279
1931231N21089 1931 31 NI BB NOT_NAMED 1931-08-20 21:00:00 TS 20.8350 88.1712 main 89 78 _________PP___ -1 20.8425 88.0925 TC 45 20.8275 88.2499 3 2 289
1931231N21089 1931 31 NI BB NOT_NAMED 1931-08-21 00:00:00 TS 20.8783 88.0625 main 78 78 _________OP___ -1 20.9000 88.0000 TC 45 20.8565 88.1250 3 2 293
1931231N21089 1931 31 NI BB NOT_NAMED 1931-08-21 03:00:00 TS 20.9212 87.9537 main 80 73 _________PO___ -1 20.9425 87.9075 TC 45 20.9000 88.0000 3 2 296
1931231N21089 1931 31 NI BB NOT_NAMED 1931-08-21 06:00:00 TS 20.9803 87.8375 main 78 63 _________OP___ -1 21.0000 87.8000 TC 45 20.9606 87.8750 3 3 301
1931231N21089 1931 31 NI BB NOT_NAMED 1931-08-21 09:00:00 TS 21.0637 87.7038 main 63 49 _________PP___ -1 21.0925 87.6575 TC 45 21.0350 87.7500 3 3 305
1931231N21089 1931 31 NI BB NOT_NAMED 1931-08-21 12:00:00 TS 21.1584 87.5625 main 49 44 _________OP___ -1 21.2000 87.5000 TC 45 21.1168 87.6250 3 3 306
1931231N21089 1931 31 NI BB NOT_NAMED 1931-08-21 15:00:00 TS 21.2538 87.4213 main 33 30 _________PO___ -1 21.3075 87.3425 TC 41 21.2000 87.5000 3 3 305
1931231N21089 1931 31 NI BB NOT_NAMED 1931-08-21 18:00:00 TS 21.3311 87.3000 main 30 15 _________OP___ -1 21.4000 87.2000 TC 37 21.2794 87.3750 3 3 303
1931231N21089 1931 31 NI BB NOT_NAMED 1931-08-21 21:00:00 TS 21.3970 87.1860 main 15 10 _________PP___ -1 21.4600 87.0900 TC 33 21.3551 87.2501 3 2 301
1931231N21089 1931 31 NI BB NOT_NAMED 1931-08-22 00:00:00 TS 21.4521 87.0834 main 0 0 _________OP___ -1 21.5000 87.0000 TC 30 21.4282 87.1251 3 2 301
1931231N21089 1931 31 NI BB NOT_NAMED 1931-08-22 03:00:00 NR 21.5000 87.0000 main 0 __________O___ -1 TC 21.5000 87.0000 1 2 303

About IBTrACS Database

This database is a web-friendly format of International Best Track Archive for Climate Stewardship (IBTrACS), a global best track data archive curated by NOAA dating back to 1842.

Updated: 2021-11-26